createdAt,value
2022-08-17T00:00:34.809Z,471
2022-08-17T00:02:24.156Z,483
2022-08-17T00:04:17.696Z,482
2022-08-17T00:06:17.365Z,490
2022-08-17T00:08:18.195Z,505
2022-08-17T00:10:18.044Z,495
2022-08-17T00:12:34.791Z,497
2022-08-17T00:14:18.122Z,490
2022-08-17T00:16:17.428Z,486
2022-08-17T00:18:54.042Z,481
2022-08-17T00:20:18.477Z,495
2022-08-17T00:22:33.397Z,495
2022-08-17T00:24:17.486Z,517
2022-08-17T00:26:34.449Z,504
2022-08-17T00:28:18.150Z,503
2022-08-17T00:30:17.682Z,508
2022-08-17T00:33:10.582Z,471
2022-08-17T00:34:18.160Z,478
2022-08-17T00:36:17.554Z,489
2022-08-17T00:38:17.387Z,503
2022-08-17T00:40:18.195Z,497
2022-08-17T00:42:17.509Z,492
2022-08-17T00:44:17.398Z,479
2022-08-17T00:46:17.917Z,491
2022-08-17T00:48:28.925Z,480
2022-08-17T00:50:17.681Z,461
2022-08-17T00:52:17.524Z,465
2022-08-17T00:54:18.361Z,461
2022-08-17T00:56:17.423Z,471
2022-08-17T00:58:18.273Z,488
2022-08-17T01:00:18.263Z,500
2022-08-17T01:02:18.090Z,526
2022-08-17T01:04:17.914Z,520
2022-08-17T01:06:17.624Z,517
2022-08-17T01:08:17.508Z,519
2022-08-17T01:10:57.915Z,519
2022-08-17T01:12:18.050Z,515
2022-08-17T01:14:18.076Z,513
2022-08-17T01:16:17.861Z,512
2022-08-17T01:18:17.860Z,498
2022-08-17T01:20:18.281Z,494
2022-08-17T01:22:18.064Z,484
2022-08-17T01:24:18.065Z,485
2022-08-17T01:26:18.216Z,481
2022-08-17T01:28:33.299Z,472
2022-08-17T01:30:57.512Z,481
2022-08-17T01:32:17.986Z,469
2022-08-17T01:34:17.975Z,474
2022-08-17T01:36:18.143Z,468
2022-08-17T01:38:17.928Z,472
2022-08-17T01:40:17.954Z,482
2022-08-17T01:42:17.756Z,483
2022-08-17T01:44:17.965Z,502
2022-08-17T01:46:17.826Z,502
2022-08-17T01:48:17.629Z,494
2022-08-17T01:50:18.125Z,479
2022-08-17T01:52:18.184Z,467
2022-08-17T01:54:18.166Z,460
2022-08-17T01:56:18.237Z,483
2022-08-17T01:58:18.014Z,497
2022-08-17T02:00:17.809Z,507
2022-08-17T02:02:30.750Z,507
2022-08-17T02:04:17.391Z,495
2022-08-17T02:06:27.357Z,495
2022-08-17T02:08:18.432Z,497
2022-08-17T02:10:19.821Z,491
2022-08-17T02:12:37.514Z,482
2022-08-17T02:14:17.810Z,467
2022-08-17T02:16:17.574Z,469
2022-08-17T02:18:17.527Z,469
2022-08-17T02:20:18.324Z,465
2022-08-17T02:22:17.840Z,460
2022-08-17T02:24:17.687Z,462
2022-08-17T02:26:24.110Z,463
2022-08-17T02:28:18.096Z,463
2022-08-17T02:30:50.272Z,472
2022-08-17T02:32:20.758Z,468
2022-08-17T02:34:17.878Z,470
2022-08-17T02:36:17.793Z,471
2022-08-17T02:38:17.554Z,474
2022-08-17T02:40:18.168Z,477
2022-08-17T02:42:17.558Z,474
2022-08-17T02:44:35.554Z,475
2022-08-17T02:46:17.596Z,461
2022-08-17T02:48:28.110Z,465
2022-08-17T02:50:17.441Z,479
2022-08-17T02:52:17.582Z,492
2022-08-17T02:54:39.585Z,496
2022-08-17T02:56:18.049Z,512
2022-08-17T02:58:17.905Z,512
2022-08-17T03:00:17.972Z,513
2022-08-17T03:02:17.702Z,502
2022-08-17T03:04:17.525Z,488
2022-08-17T03:06:18.041Z,469
2022-08-17T03:08:17.917Z,468
2022-08-17T03:10:17.398Z,482
2022-08-17T03:12:17.825Z,478
2022-08-17T03:14:18.180Z,480
2022-08-17T03:16:18.136Z,485
2022-08-17T03:18:18.870Z,493
2022-08-17T03:20:17.974Z,501
2022-08-17T03:22:35.821Z,505
2022-08-17T03:24:18.063Z,493
2022-08-17T03:26:18.048Z,479
2022-08-17T03:28:18.170Z,463
2022-08-17T03:30:17.867Z,458
2022-08-17T03:32:18.147Z,466
2022-08-17T03:34:17.455Z,482
2022-08-17T03:36:18.260Z,488
2022-08-17T03:38:18.235Z,497
2022-08-17T03:40:18.096Z,507
2022-08-17T03:42:31.683Z,505
2022-08-17T03:44:17.582Z,517
2022-08-17T03:46:29.154Z,530
2022-08-17T03:48:18.033Z,558
2022-08-17T03:50:17.844Z,588
2022-08-17T03:52:17.664Z,557
2022-08-17T03:54:18.245Z,565
2022-08-17T03:56:18.057Z,554
2022-08-17T03:58:17.921Z,530
2022-08-17T04:00:17.743Z,542
2022-08-17T04:02:17.637Z,534
2022-08-17T04:04:17.865Z,529
2022-08-17T04:06:17.789Z,532
2022-08-17T04:08:17.959Z,534
2022-08-17T04:10:17.839Z,546
2022-08-17T04:12:17.977Z,535
2022-08-17T04:14:17.908Z,535
2022-08-17T04:16:17.720Z,532
2022-08-17T04:18:17.752Z,552
2022-08-17T04:20:17.690Z,705
2022-08-17T04:22:31.517Z,765
2022-08-17T04:24:18.078Z,636
2022-08-17T04:26:52.343Z,583
2022-08-17T04:28:17.933Z,577
2022-08-17T04:30:18.051Z,566
2022-08-17T04:32:21.766Z,552
2022-08-17T04:34:19.621Z,625
2022-08-17T04:36:17.841Z,621
2022-08-17T04:38:17.483Z,614
2022-08-17T04:40:18.364Z,545
2022-08-17T04:42:18.163Z,532
2022-08-17T04:44:27.313Z,530
2022-08-17T04:46:17.892Z,555
2022-08-17T04:48:17.723Z,558
2022-08-17T04:50:17.486Z,553
2022-08-17T04:52:29.528Z,549
2022-08-17T04:54:18.182Z,547
2022-08-17T04:56:18.144Z,546
2022-08-17T04:58:17.795Z,557
2022-08-17T05:00:18.331Z,589
2022-08-17T05:02:17.956Z,577
2022-08-17T05:04:19.959Z,579
2022-08-17T05:06:18.214Z,569
2022-08-17T05:08:17.360Z,567
2022-08-17T05:10:17.413Z,561
2022-08-17T05:12:17.448Z,568
2022-08-17T05:14:18.264Z,560
2022-08-17T05:16:18.083Z,543
2022-08-17T05:18:18.117Z,537
2022-08-17T05:20:17.885Z,539
2022-08-17T05:22:17.785Z,547
2022-08-17T05:24:38.876Z,595
2022-08-17T05:26:22.578Z,578
2022-08-17T05:28:18.246Z,569
2022-08-17T05:30:18.349Z,573
2022-08-17T05:32:37.737Z,577
2022-08-17T05:34:17.812Z,581
2022-08-17T05:36:37.638Z,593
2022-08-17T05:38:17.668Z,596
2022-08-17T05:40:17.692Z,588
2022-08-17T05:42:18.063Z,591
2022-08-17T05:44:17.931Z,586
2022-08-17T05:46:17.771Z,597
2022-08-17T05:48:17.685Z,597
2022-08-17T05:50:18.029Z,582
2022-08-17T05:52:18.920Z,551
2022-08-17T05:54:18.337Z,564
2022-08-17T05:56:29.176Z,565
2022-08-17T05:58:17.877Z,600
2022-08-17T06:00:19.310Z,650
2022-08-17T06:02:17.411Z,625
2022-08-17T06:04:17.761Z,629
2022-08-17T06:06:17.697Z,649
2022-08-17T06:08:17.599Z,657
2022-08-17T06:10:17.283Z,631
2022-08-17T06:12:19.059Z,637
2022-08-17T06:14:18.154Z,614
2022-08-17T06:16:26.053Z,582
2022-08-17T06:18:19.180Z,539
2022-08-17T06:20:18.146Z,531
2022-08-17T06:22:17.847Z,534
2022-08-17T06:24:17.679Z,553
2022-08-17T06:26:17.650Z,556
2022-08-17T06:28:17.477Z,548
2022-08-17T06:30:17.883Z,564
2022-08-17T06:32:17.653Z,596
2022-08-17T06:34:17.431Z,603
2022-08-17T06:36:18.231Z,593
2022-08-17T06:38:37.335Z,612
2022-08-17T06:40:18.036Z,619
2022-08-17T06:42:54.239Z,647
2022-08-17T06:44:41.996Z,584
2022-08-17T06:46:17.435Z,571
2022-08-17T06:48:17.396Z,551
2022-08-17T06:50:17.790Z,544
2022-08-17T06:52:37.625Z,549
2022-08-17T06:54:17.793Z,568
2022-08-17T06:56:17.772Z,581
2022-08-17T06:58:17.655Z,577
2022-08-17T07:00:17.413Z,601
2022-08-17T07:02:17.628Z,625
2022-08-17T07:04:17.731Z,634
2022-08-17T07:06:17.571Z,763
2022-08-17T07:08:17.502Z,762
2022-08-17T07:10:17.504Z,731
2022-08-17T07:12:17.914Z,719
2022-08-17T07:14:17.725Z,698
2022-08-17T07:16:17.641Z,680
2022-08-17T07:18:17.711Z,652
2022-08-17T07:20:18.143Z,658
2022-08-17T07:22:18.179Z,677
2022-08-17T07:24:26.029Z,663
2022-08-17T07:26:18.031Z,694
2022-08-17T07:28:17.824Z,756
2022-08-17T07:30:17.736Z,696
2022-08-17T07:32:17.598Z,707
2022-08-17T07:34:17.922Z,718
2022-08-17T07:36:17.774Z,755
2022-08-17T07:38:24.478Z,751
2022-08-17T07:40:18.077Z,767
2022-08-17T07:42:18.244Z,842
2022-08-17T07:44:17.605Z,861
2022-08-17T07:46:17.439Z,884
2022-08-17T07:48:18.260Z,819
2022-08-17T07:50:18.418Z,842
2022-08-17T07:52:24.411Z,867
2022-08-17T07:54:22.809Z,832
2022-08-17T07:56:17.549Z,827
2022-08-17T07:58:18.282Z,861
2022-08-17T08:00:18.149Z,836
2022-08-17T08:02:18.023Z,846
2022-08-17T08:04:19.554Z,811
2022-08-17T08:06:17.982Z,767
2022-08-17T08:08:17.772Z,888
2022-08-17T08:10:17.758Z,846
2022-08-17T08:12:17.817Z,777
2022-08-17T08:14:17.919Z,658
2022-08-17T08:16:17.357Z,643
2022-08-17T08:18:17.775Z,742
2022-08-17T08:20:35.080Z,780
2022-08-17T08:22:18.020Z,825
2022-08-17T08:24:17.790Z,830
2022-08-17T08:26:18.691Z,813
2022-08-17T08:28:17.737Z,794
2022-08-17T08:30:17.665Z,767
2022-08-17T08:32:17.486Z,780
2022-08-17T08:34:44.849Z,746
2022-08-17T08:36:56.494Z,732
2022-08-17T08:38:17.504Z,703
2022-08-17T08:40:17.575Z,672
2022-08-17T08:42:17.749Z,628
2022-08-17T08:44:17.772Z,616
2022-08-17T08:46:19.635Z,687
2022-08-17T08:48:22.806Z,720
2022-08-17T08:50:30.077Z,730
2022-08-17T08:52:17.682Z,726
2022-08-17T08:54:17.554Z,695
2022-08-17T08:56:17.437Z,663
2022-08-17T08:58:30.929Z,658
2022-08-17T09:00:17.592Z,655
2022-08-17T09:02:17.334Z,674
2022-08-17T09:04:24.504Z,646
2022-08-17T09:06:32.415Z,655
2022-08-17T09:08:17.733Z,648
2022-08-17T09:10:17.888Z,659
2022-08-17T09:12:17.842Z,657
2022-08-17T09:14:21.410Z,656
2022-08-17T09:16:17.627Z,646
2022-08-17T09:18:59.455Z,659
2022-08-17T09:20:27.274Z,651
2022-08-17T09:22:18.460Z,636
2022-08-17T09:24:20.624Z,643
2022-08-17T09:26:17.750Z,642
2022-08-17T09:28:17.554Z,645
2022-08-17T09:30:18.375Z,636
2022-08-17T09:32:17.478Z,629
2022-08-17T09:34:18.323Z,631
2022-08-17T09:36:18.102Z,621
2022-08-17T09:38:17.904Z,633
2022-08-17T09:40:17.717Z,610
2022-08-17T09:42:17.683Z,607
2022-08-17T09:44:22.627Z,614
2022-08-17T09:46:17.753Z,602
2022-08-17T09:48:18.027Z,640
2022-08-17T09:50:18.029Z,630
2022-08-17T09:52:18.363Z,619
2022-08-17T09:54:37.906Z,653
2022-08-17T09:56:17.614Z,664
2022-08-17T09:58:17.470Z,689
2022-08-17T10:00:17.999Z,712
2022-08-17T10:02:17.829Z,728
2022-08-17T10:04:20.198Z,700
2022-08-17T10:06:21.903Z,696
2022-08-17T10:08:18.090Z,669
2022-08-17T10:10:17.690Z,660
2022-08-17T10:12:17.918Z,671
2022-08-17T10:14:36.126Z,667
2022-08-17T10:16:18.307Z,665
2022-08-17T10:18:17.388Z,675
2022-08-17T10:20:18.328Z,662
2022-08-17T10:22:32.890Z,673
2022-08-17T10:24:18.293Z,679
2022-08-17T10:26:17.464Z,687
2022-08-17T10:28:20.191Z,740
2022-08-17T10:30:17.680Z,762
2022-08-17T10:32:17.428Z,788
2022-08-17T10:34:17.810Z,754
2022-08-17T10:36:17.768Z,795
2022-08-17T10:38:17.734Z,787
2022-08-17T10:40:17.498Z,784
2022-08-17T10:42:30.238Z,757
2022-08-17T10:44:36.918Z,740
2022-08-17T10:46:27.799Z,759
2022-08-17T10:48:17.657Z,754
2022-08-17T10:50:17.608Z,766
2022-08-17T10:52:17.536Z,763
2022-08-17T10:54:17.668Z,754
2022-08-17T10:56:17.498Z,734
2022-08-17T10:58:17.570Z,719
2022-08-17T11:00:17.530Z,720
2022-08-17T11:02:18.363Z,702
2022-08-17T11:04:18.107Z,725
2022-08-17T11:06:17.949Z,745
2022-08-17T11:08:17.599Z,755
2022-08-17T11:10:17.484Z,763
2022-08-17T11:12:17.500Z,747
2022-08-17T11:14:17.503Z,761
2022-08-17T11:16:17.410Z,740
2022-08-17T11:18:17.405Z,726
2022-08-17T11:20:18.356Z,706
2022-08-17T11:22:18.206Z,702
2022-08-17T11:24:18.372Z,691
2022-08-17T11:26:18.164Z,678
2022-08-17T11:28:18.193Z,680
2022-08-17T11:30:18.017Z,665
2022-08-17T11:32:17.850Z,691
2022-08-17T11:34:17.669Z,698
2022-08-17T11:36:17.342Z,706
2022-08-17T11:38:18.313Z,701
2022-08-17T11:40:18.225Z,697
2022-08-17T11:42:17.760Z,692
2022-08-17T11:44:17.542Z,708
2022-08-17T11:46:17.422Z,673
2022-08-17T11:48:27.544Z,665
2022-08-17T11:50:18.029Z,680
2022-08-17T11:52:18.121Z,687
2022-08-17T11:54:34.530Z,705
2022-08-17T11:56:17.409Z,729
2022-08-17T11:58:18.285Z,720
2022-08-17T12:00:18.100Z,705
2022-08-17T12:02:17.975Z,695
2022-08-17T12:04:17.942Z,679
2022-08-17T12:06:17.782Z,667
2022-08-17T12:08:18.283Z,637
2022-08-17T12:10:18.018Z,607
2022-08-17T12:12:18.326Z,606
2022-08-17T12:14:21.337Z,610
2022-08-17T12:16:18.028Z,605
2022-08-17T12:18:17.912Z,592
2022-08-17T12:20:18.020Z,581
2022-08-17T12:22:17.596Z,591
2022-08-17T12:24:17.900Z,593
2022-08-17T12:26:18.130Z,601
2022-08-17T12:28:20.024Z,600
2022-08-17T12:30:18.031Z,581
2022-08-17T12:32:17.859Z,582
2022-08-17T12:34:17.658Z,586
2022-08-17T12:36:17.429Z,581
2022-08-17T12:38:31.862Z,589
2022-08-17T12:40:18.038Z,583
2022-08-17T12:42:17.769Z,577
2022-08-17T12:44:17.635Z,573
2022-08-17T12:46:17.461Z,573
2022-08-17T12:48:17.828Z,587
2022-08-17T12:50:28.430Z,573
2022-08-17T12:52:18.191Z,579
2022-08-17T12:54:17.997Z,575
2022-08-17T12:56:17.801Z,574
2022-08-17T12:58:17.558Z,576
2022-08-17T13:00:17.375Z,575
2022-08-17T13:02:18.246Z,592
2022-08-17T13:04:18.115Z,586
2022-08-17T13:06:18.201Z,595
2022-08-17T13:08:18.172Z,600
2022-08-17T13:10:17.970Z,609
2022-08-17T13:12:17.759Z,601
2022-08-17T13:14:17.674Z,609
2022-08-17T13:16:17.498Z,637
2022-08-17T13:18:17.423Z,625
2022-08-17T13:20:18.215Z,613
2022-08-17T13:22:18.036Z,609
2022-08-17T13:24:17.788Z,615
2022-08-17T13:26:17.569Z,608
2022-08-17T13:28:18.361Z,618
2022-08-17T13:30:17.472Z,606
2022-08-17T13:32:19.833Z,602
2022-08-17T13:34:17.917Z,609
2022-08-17T13:36:19.454Z,594
2022-08-17T13:38:18.217Z,617
2022-08-17T13:40:18.164Z,607
2022-08-17T13:42:22.257Z,626
2022-08-17T13:44:18.151Z,607
2022-08-17T13:46:17.970Z,619
2022-08-17T13:48:17.777Z,634
2022-08-17T13:50:17.575Z,609
2022-08-17T13:52:17.398Z,595
2022-08-17T13:54:18.191Z,611
2022-08-17T13:56:38.150Z,609
2022-08-17T13:58:17.922Z,615
2022-08-17T14:00:17.632Z,637
2022-08-17T14:02:17.546Z,656
2022-08-17T14:04:18.362Z,653
2022-08-17T14:06:22.121Z,636
2022-08-17T14:08:17.582Z,668
2022-08-17T14:10:17.432Z,655
2022-08-17T14:12:18.531Z,632
2022-08-17T14:14:18.305Z,637
2022-08-17T14:16:18.052Z,639
2022-08-17T14:18:17.978Z,629
2022-08-17T14:20:18.190Z,634
2022-08-17T14:22:17.982Z,646
2022-08-17T14:24:17.885Z,661
2022-08-17T14:26:17.698Z,699
2022-08-17T14:28:17.522Z,765
2022-08-17T14:30:18.349Z,756
2022-08-17T14:32:18.273Z,800
2022-08-17T14:34:18.163Z,828
2022-08-17T14:36:18.208Z,842
2022-08-17T14:38:17.991Z,885
2022-08-17T14:40:17.829Z,837
2022-08-17T14:42:17.695Z,829
2022-08-17T14:44:22.628Z,813
2022-08-17T14:46:17.498Z,784
2022-08-17T14:48:17.707Z,798
2022-08-17T14:50:18.540Z,826
2022-08-17T14:52:17.517Z,819
2022-08-17T14:54:29.465Z,808
2022-08-17T14:56:17.799Z,798
2022-08-17T14:58:17.647Z,791
2022-08-17T15:00:17.439Z,786
2022-08-17T15:02:17.843Z,793
2022-08-17T15:04:17.640Z,801
2022-08-17T15:06:17.402Z,812
2022-08-17T15:08:18.224Z,801
2022-08-17T15:10:18.025Z,799
2022-08-17T15:12:17.837Z,795
2022-08-17T15:14:17.700Z,797
2022-08-17T15:16:17.603Z,798
2022-08-17T15:18:17.481Z,792
2022-08-17T15:20:18.248Z,787
2022-08-17T15:22:18.119Z,784
2022-08-17T15:24:17.993Z,799
2022-08-17T15:26:20.708Z,785
2022-08-17T15:28:17.635Z,790
2022-08-17T15:30:17.439Z,784
2022-08-17T15:32:18.215Z,778
2022-08-17T15:34:18.006Z,766
2022-08-17T15:36:17.768Z,762
2022-08-17T15:38:17.546Z,751
2022-08-17T15:40:18.430Z,743
2022-08-17T15:42:18.335Z,745
2022-08-17T15:44:17.647Z,731
2022-08-17T15:46:17.507Z,726
2022-08-17T15:48:18.249Z,713
2022-08-17T15:50:18.340Z,712
2022-08-17T15:52:18.304Z,718
2022-08-17T15:54:19.443Z,707
2022-08-17T15:56:17.439Z,710
2022-08-17T15:58:19.257Z,709
2022-08-17T16:00:18.307Z,703
2022-08-17T16:03:02.060Z,706
2022-08-17T16:04:27.300Z,714
2022-08-17T16:06:17.680Z,701
2022-08-17T16:08:21.072Z,722
2022-08-17T16:10:19.136Z,712
2022-08-17T16:12:18.256Z,705
2022-08-17T16:14:24.174Z,704
2022-08-17T16:16:18.307Z,708
2022-08-17T16:18:18.236Z,708
2022-08-17T16:20:19.496Z,709
2022-08-17T16:22:17.519Z,708
2022-08-17T16:24:18.399Z,696
2022-08-17T16:26:18.192Z,699
2022-08-17T16:28:17.957Z,697
2022-08-17T16:30:18.219Z,682
2022-08-17T16:32:18.127Z,677
2022-08-17T16:34:18.622Z,674
2022-08-17T16:36:17.609Z,678
2022-08-17T16:38:17.445Z,675
2022-08-17T16:40:17.537Z,679
2022-08-17T16:42:18.367Z,677
2022-08-17T16:44:18.335Z,682
2022-08-17T16:46:18.161Z,680
2022-08-17T16:48:18.249Z,674
2022-08-17T16:50:18.050Z,679
2022-08-17T16:52:32.241Z,672
2022-08-17T16:54:17.881Z,667
2022-08-17T16:56:17.659Z,680
2022-08-17T16:58:17.493Z,681
2022-08-17T17:00:18.313Z,678
2022-08-17T17:02:18.171Z,680
2022-08-17T17:04:17.996Z,664
2022-08-17T17:06:18.663Z,661
2022-08-17T17:08:17.546Z,670
2022-08-17T17:10:18.431Z,672
2022-08-17T17:12:18.228Z,673
2022-08-17T17:14:18.197Z,671
2022-08-17T17:16:18.144Z,680
2022-08-17T17:18:18.079Z,677
2022-08-17T17:20:17.882Z,682
2022-08-17T17:22:17.712Z,681
2022-08-17T17:24:17.392Z,675
2022-08-17T17:26:18.187Z,675
2022-08-17T17:28:17.959Z,671
2022-08-17T17:30:17.967Z,665
2022-08-17T17:32:17.732Z,679
2022-08-17T17:34:17.558Z,687
2022-08-17T17:36:17.361Z,683
2022-08-17T17:38:18.152Z,682
2022-08-17T17:40:18.025Z,679
2022-08-17T17:42:20.226Z,679
2022-08-17T17:44:19.784Z,686
2022-08-17T17:46:26.960Z,674
2022-08-17T17:48:17.404Z,680
2022-08-17T17:50:18.262Z,673
2022-08-17T17:52:19.384Z,674
2022-08-17T17:54:17.346Z,662
2022-08-17T17:56:21.071Z,667
2022-08-17T17:58:18.083Z,665
2022-08-17T18:00:17.867Z,673
2022-08-17T18:02:17.605Z,682
2022-08-17T18:04:20.819Z,675
2022-08-17T18:06:18.621Z,678
2022-08-17T18:08:17.806Z,678
2022-08-17T18:10:19.875Z,678
2022-08-17T18:12:17.495Z,677
2022-08-17T18:14:17.491Z,668
2022-08-17T18:16:18.225Z,668
2022-08-17T18:18:17.835Z,665
2022-08-17T18:20:17.605Z,662
2022-08-17T18:22:17.474Z,659
2022-08-17T18:24:18.296Z,653
2022-08-17T18:26:18.158Z,653
2022-08-17T18:28:17.449Z,652
2022-08-17T18:30:18.322Z,642
2022-08-17T18:32:18.310Z,649
2022-08-17T18:34:36.016Z,648
2022-08-17T18:36:17.630Z,656
2022-08-17T18:38:20.011Z,652
2022-08-17T18:40:18.001Z,646
2022-08-17T18:42:17.804Z,640
2022-08-17T18:44:17.652Z,634
2022-08-17T18:46:17.491Z,636
2022-08-17T18:48:17.723Z,633
2022-08-17T18:50:17.591Z,630
2022-08-17T18:52:17.399Z,631
2022-08-17T18:54:18.149Z,636
2022-08-17T18:56:17.947Z,627
2022-08-17T18:58:17.743Z,604
2022-08-17T19:00:17.578Z,588
2022-08-17T19:02:26.353Z,558
2022-08-17T19:04:18.217Z,546
2022-08-17T19:06:18.355Z,540
2022-08-17T19:08:18.155Z,630
2022-08-17T19:10:17.925Z,615
2022-08-17T19:12:17.766Z,598
2022-08-17T19:14:17.636Z,561
2022-08-17T19:16:17.415Z,524
2022-08-17T19:18:18.314Z,535
2022-08-17T19:20:18.102Z,528
2022-08-17T19:22:27.803Z,516
2022-08-17T19:24:18.065Z,554
2022-08-17T19:26:51.582Z,538
2022-08-17T19:28:22.135Z,531
2022-08-17T19:30:17.503Z,506
2022-08-17T19:32:18.236Z,488
2022-08-17T19:34:30.371Z,477
2022-08-17T19:36:18.274Z,470
2022-08-17T19:38:18.062Z,466
2022-08-17T19:40:35.376Z,476
2022-08-17T19:42:17.678Z,477
2022-08-17T19:44:17.557Z,484
2022-08-17T19:46:18.317Z,479
2022-08-17T19:48:18.193Z,481
2022-08-17T19:50:17.948Z,485
2022-08-17T19:52:18.085Z,482
2022-08-17T19:54:22.937Z,474
2022-08-17T19:56:17.907Z,472
2022-08-17T19:58:22.682Z,464
2022-08-17T20:00:17.437Z,455
2022-08-17T20:02:18.234Z,466
2022-08-17T20:04:18.205Z,478
2022-08-17T20:06:17.919Z,482
2022-08-17T20:08:17.815Z,472
2022-08-17T20:10:17.719Z,463
2022-08-17T20:12:17.589Z,466
2022-08-17T20:14:17.404Z,460
2022-08-17T20:16:18.220Z,474
2022-08-17T20:18:17.529Z,480
2022-08-17T20:20:19.267Z,474
2022-08-17T20:22:17.431Z,480
2022-08-17T20:24:18.366Z,484
2022-08-17T20:26:19.370Z,488
2022-08-17T20:28:17.435Z,492
2022-08-17T20:30:18.455Z,479
2022-08-17T20:32:18.270Z,477
2022-08-17T20:34:17.488Z,481
2022-08-17T20:36:18.244Z,481
2022-08-17T20:38:17.554Z,479
2022-08-17T20:40:17.453Z,475
2022-08-17T20:42:18.243Z,485
2022-08-17T20:44:18.093Z,474
2022-08-17T20:46:18.302Z,464
2022-08-17T20:48:36.674Z,469
2022-08-17T20:50:18.321Z,485
2022-08-17T20:52:18.618Z,502
2022-08-17T20:54:17.967Z,493
2022-08-17T20:56:17.749Z,481
2022-08-17T20:58:17.586Z,485
2022-08-17T21:00:17.463Z,477
2022-08-17T21:02:19.307Z,492
2022-08-17T21:04:18.258Z,489
2022-08-17T21:06:18.114Z,498
2022-08-17T21:08:18.122Z,496
2022-08-17T21:10:17.832Z,488
2022-08-17T21:12:17.641Z,512
2022-08-17T21:14:17.498Z,532
2022-08-17T21:16:18.296Z,540
2022-08-17T21:18:18.355Z,561
2022-08-17T21:20:18.154Z,565
2022-08-17T21:22:17.968Z,589
2022-08-17T21:24:17.780Z,606
2022-08-17T21:26:17.953Z,616
2022-08-17T21:28:17.731Z,629
2022-08-17T21:30:17.578Z,621
2022-08-17T21:32:19.409Z,619
2022-08-17T21:34:18.078Z,635
2022-08-17T21:36:18.956Z,642
2022-08-17T21:38:17.749Z,640
2022-08-17T21:40:17.646Z,652
2022-08-17T21:42:17.440Z,655
2022-08-17T21:44:18.223Z,651
2022-08-17T21:46:18.013Z,661
2022-08-17T21:48:17.843Z,660
2022-08-17T21:50:17.574Z,669
2022-08-17T21:52:18.383Z,679
2022-08-17T21:54:18.221Z,675
2022-08-17T21:56:17.973Z,677
2022-08-17T21:58:17.975Z,690
2022-08-17T22:00:17.767Z,682
2022-08-17T22:02:22.543Z,695
2022-08-17T22:04:18.305Z,697
2022-08-17T22:06:18.098Z,696
2022-08-17T22:08:18.269Z,690
2022-08-17T22:10:18.202Z,692
2022-08-17T22:12:17.960Z,701
2022-08-17T22:14:17.716Z,702
2022-08-17T22:16:28.192Z,703
2022-08-17T22:18:18.283Z,711
2022-08-17T22:20:18.100Z,702
2022-08-17T22:22:17.998Z,709
2022-08-17T22:24:17.837Z,714
2022-08-17T22:26:17.617Z,715
2022-08-17T22:28:17.511Z,725
2022-08-17T22:30:18.372Z,721
2022-08-17T22:32:18.186Z,726
2022-08-17T22:34:17.977Z,738
2022-08-17T22:36:17.839Z,729
2022-08-17T22:38:17.793Z,727
2022-08-17T22:40:17.643Z,728
2022-08-17T22:42:17.417Z,732
2022-08-17T22:44:18.140Z,729
2022-08-17T22:46:18.030Z,733
2022-08-17T22:48:17.795Z,732
2022-08-17T22:50:17.630Z,731
2022-08-17T22:52:17.520Z,735
2022-08-17T22:54:18.224Z,732
2022-08-17T22:56:17.902Z,730
2022-08-17T22:58:17.646Z,730
2022-08-17T23:00:17.656Z,737
2022-08-17T23:02:17.648Z,730
2022-08-17T23:04:17.539Z,733
2022-08-17T23:06:18.219Z,740
2022-08-17T23:08:18.034Z,731
2022-08-17T23:10:17.985Z,734
2022-08-17T23:12:17.820Z,745
2022-08-17T23:14:17.640Z,745
2022-08-17T23:16:17.519Z,738
2022-08-17T23:18:17.460Z,742
2022-08-17T23:20:18.309Z,738
2022-08-17T23:22:18.111Z,743
2022-08-17T23:24:18.416Z,746
2022-08-17T23:26:18.211Z,735
2022-08-17T23:28:18.032Z,737
2022-08-17T23:30:17.848Z,730
2022-08-17T23:32:17.612Z,733
2022-08-17T23:34:17.410Z,726
2022-08-17T23:36:18.236Z,729
2022-08-17T23:38:17.963Z,728
2022-08-17T23:40:17.731Z,730
2022-08-17T23:42:17.460Z,731
2022-08-17T23:44:18.216Z,736
2022-08-17T23:46:18.224Z,733
2022-08-17T23:48:28.725Z,730
2022-08-17T23:50:17.769Z,738
2022-08-17T23:52:17.423Z,731
2022-08-17T23:54:18.283Z,731
2022-08-17T23:56:18.220Z,728
2022-08-17T23:58:18.194Z,730
